sensor_id;sensor_type;location;lat;lon;timestamp;P1;durP1;ratioP1;P2;durP2;ratioP2
5871;SDS011;2962;51.312;7.378;2023-05-10T00:01:39;9.90;;;4.40;;
5871;SDS011;2962;51.312;7.378;2023-05-10T00:04:05;28.43;;;4.40;;
5871;SDS011;2962;51.312;7.378;2023-05-10T00:06:30;3.90;;;3.80;;
5871;SDS011;2962;51.312;7.378;2023-05-10T00:08:56;5.00;;;3.27;;
5871;SDS011;2962;51.312;7.378;2023-05-10T00:11:21;3.33;;;3.33;;
5871;SDS011;2962;51.312;7.378;2023-05-10T00:13:47;7.20;;;3.60;;
5871;SDS011;2962;51.312;7.378;2023-05-10T00:16:12;4.37;;;3.97;;
5871;SDS011;2962;51.312;7.378;2023-05-10T00:18:38;3.30;;;3.10;;
5871;SDS011;2962;51.312;7.378;2023-05-10T00:21:04;2.40;;;2.40;;
5871;SDS011;2962;51.312;7.378;2023-05-10T00:23:29;2.90;;;2.90;;
5871;SDS011;2962;51.312;7.378;2023-05-10T00:25:55;1.97;;;1.97;;
5871;SDS011;2962;51.312;7.378;2023-05-10T00:28:21;4.80;;;3.00;;
5871;SDS011;2962;51.312;7.378;2023-05-10T00:30:46;3.70;;;3.40;;
5871;SDS011;2962;51.312;7.378;2023-05-10T00:33:11;5.13;;;3.17;;
5871;SDS011;2962;51.312;7.378;2023-05-10T00:35:37;3.80;;;3.70;;
5871;SDS011;2962;51.312;7.378;2023-05-10T00:38:02;4.23;;;3.97;;
5871;SDS011;2962;51.312;7.378;2023-05-10T00:40:28;3.83;;;3.73;;
5871;SDS011;2962;51.312;7.378;2023-05-10T00:42:53;3.20;;;3.10;;
5871;SDS011;2962;51.312;7.378;2023-05-10T00:45:19;6.33;;;3.90;;
5871;SDS011;2962;51.312;7.378;2023-05-10T00:47:44;4.30;;;4.10;;
5871;SDS011;2962;51.312;7.378;2023-05-10T00:50:10;6.40;;;5.37;;
5871;SDS011;2962;51.312;7.378;2023-05-10T00:52:35;5.13;;;4.83;;
5871;SDS011;2962;51.312;7.378;2023-05-10T00:55:02;5.60;;;5.20;;
5871;SDS011;2962;51.312;7.378;2023-05-10T00:57:28;7.77;;;5.53;;
5871;SDS011;2962;51.312;7.378;2023-05-10T00:59:53;6.37;;;5.87;;
5871;SDS011;2962;51.312;7.378;2023-05-10T01:02:18;6.53;;;5.97;;
5871;SDS011;2962;51.312;7.378;2023-05-10T01:04:44;6.97;;;6.37;;
5871;SDS011;2962;51.312;7.378;2023-05-10T01:07:09;7.10;;;6.33;;
5871;SDS011;2962;51.312;7.378;2023-05-10T01:09:35;7.30;;;6.57;;
5871;SDS011;2962;51.312;7.378;2023-05-10T01:12:00;7.80;;;6.73;;
5871;SDS011;2962;51.312;7.378;2023-05-10T01:14:26;7.20;;;6.50;;
5871;SDS011;2962;51.312;7.378;2023-05-10T01:16:53;10.13;;;6.93;;
5871;SDS011;2962;51.312;7.378;2023-05-10T01:19:19;6.93;;;5.73;;
5871;SDS011;2962;51.312;7.378;2023-05-10T01:21:49;8.07;;;5.87;;
5871;SDS011;2962;51.312;7.378;2023-05-10T01:27:19;7.93;;;6.17;;
5871;SDS011;2962;51.312;7.378;2023-05-10T01:30:25;14.47;;;5.57;;
5871;SDS011;2962;51.312;7.378;2023-05-10T01:33:27;20.53;;;5.50;;
5871;SDS011;2962;51.312;7.378;2023-05-10T01:36:14;6.93;;;6.30;;
5871;SDS011;2962;51.312;7.378;2023-05-10T01:38:58;5.70;;;5.20;;
5871;SDS011;2962;51.312;7.378;2023-05-10T01:46:48;5.93;;;5.20;;
5871;SDS011;2962;51.312;7.378;2023-05-10T01:49:26;5.90;;;5.30;;
5871;SDS011;2962;51.312;7.378;2023-05-10T01:51:59;6.53;;;5.93;;
5871;SDS011;2962;51.312;7.378;2023-05-10T01:54:29;6.83;;;6.20;;
5871;SDS011;2962;51.312;7.378;2023-05-10T01:56:56;7.33;;;6.60;;
5871;SDS011;2962;51.312;7.378;2023-05-10T01:59:26;15.80;;;6.50;;
5871;SDS011;2962;51.312;7.378;2023-05-10T02:01:54;7.30;;;6.60;;
5871;SDS011;2962;51.312;7.378;2023-05-10T02:04:23;8.63;;;7.23;;
5871;SDS011;2962;51.312;7.378;2023-05-10T02:06:50;7.53;;;6.73;;
5871;SDS011;2962;51.312;7.378;2023-05-10T02:09:17;11.17;;;7.27;;
5871;SDS011;2962;51.312;7.378;2023-05-10T02:11:45;8.57;;;7.67;;
5871;SDS011;2962;51.312;7.378;2023-05-10T02:14:12;6.77;;;6.17;;
5871;SDS011;2962;51.312;7.378;2023-05-10T02:16:40;8.30;;;7.40;;
5871;SDS011;2962;51.312;7.378;2023-05-10T02:19:07;9.07;;;7.10;;
5871;SDS011;2962;51.312;7.378;2023-05-10T02:21:33;9.93;;;7.97;;
5871;SDS011;2962;51.312;7.378;2023-05-10T02:24:00;14.90;;;8.57;;
5871;SDS011;2962;51.312;7.378;2023-05-10T02:26:28;11.00;;;8.47;;
5871;SDS011;2962;51.312;7.378;2023-05-10T02:28:54;9.97;;;8.70;;
5871;SDS011;2962;51.312;7.378;2023-05-10T02:31:22;12.67;;;10.53;;
5871;SDS011;2962;51.312;7.378;2023-05-10T02:33:48;18.47;;;10.63;;
5871;SDS011;2962;51.312;7.378;2023-05-10T02:36:14;12.70;;;10.20;;
5871;SDS011;2962;51.312;7.378;2023-05-10T02:38:40;56.43;;;13.67;;
5871;SDS011;2962;51.312;7.378;2023-05-10T02:41:06;260.00;;;20.83;;
5871;SDS011;2962;51.312;7.378;2023-05-10T02:43:33;254.40;;;21.00;;
5871;SDS011;2962;51.312;7.378;2023-05-10T02:46:00;174.37;;;18.20;;
5871;SDS011;2962;51.312;7.378;2023-05-10T02:48:26;238.17;;;20.00;;
5871;SDS011;2962;51.312;7.378;2023-05-10T02:50:52;512.00;;;34.50;;
5871;SDS011;2962;51.312;7.378;2023-05-10T02:53:22;957.47;;;50.10;;
5871;SDS011;2962;51.312;7.378;2023-05-10T02:55:53;851.40;;;47.30;;
5871;SDS011;2962;51.312;7.378;2023-05-10T02:58:23;810.70;;;41.90;;
5871;SDS011;2962;51.312;7.378;2023-05-10T03:00:49;867.87;;;49.07;;
5871;SDS011;2962;51.312;7.378;2023-05-10T03:03:14;144.10;;;16.03;;
5871;SDS011;2962;51.312;7.378;2023-05-10T03:05:39;16.10;;;10.67;;
5871;SDS011;2962;51.312;7.378;2023-05-10T03:08:05;12.53;;;9.00;;
5871;SDS011;2962;51.312;7.378;2023-05-10T03:10:31;21.50;;;11.30;;
5871;SDS011;2962;51.312;7.378;2023-05-10T03:13:05;13.27;;;10.57;;
5871;SDS011;2962;51.312;7.378;2023-05-10T03:18:37;18.40;;;11.97;;
5871;SDS011;2962;51.312;7.378;2023-05-10T03:21:20;18.63;;;11.63;;
5871;SDS011;2962;51.312;7.378;2023-05-10T03:23:52;20.67;;;11.73;;
5871;SDS011;2962;51.312;7.378;2023-05-10T03:26:33;15.07;;;9.23;;
5871;SDS011;2962;51.312;7.378;2023-05-10T03:28:59;18.90;;;12.47;;
5871;SDS011;2962;51.312;7.378;2023-05-10T03:31:25;17.83;;;12.03;;
5871;SDS011;2962;51.312;7.378;2023-05-10T03:33:51;18.37;;;10.80;;
5871;SDS011;2962;51.312;7.378;2023-05-10T03:36:18;16.30;;;11.97;;
5871;SDS011;2962;51.312;7.378;2023-05-10T03:38:44;22.07;;;12.80;;
5871;SDS011;2962;51.312;7.378;2023-05-10T03:41:09;16.30;;;10.17;;
5871;SDS011;2962;51.312;7.378;2023-05-10T03:43:34;19.17;;;12.03;;
5871;SDS011;2962;51.312;7.378;2023-05-10T03:46:03;17.07;;;12.20;;
5871;SDS011;2962;51.312;7.378;2023-05-10T03:48:29;22.50;;;13.30;;
5871;SDS011;2962;51.312;7.378;2023-05-10T03:50:54;27.40;;;15.87;;
5871;SDS011;2962;51.312;7.378;2023-05-10T03:53:19;31.63;;;14.90;;
5871;SDS011;2962;51.312;7.378;2023-05-10T03:55:45;30.03;;;14.90;;
5871;SDS011;2962;51.312;7.378;2023-05-10T03:58:10;32.97;;;18.00;;
5871;SDS011;2962;51.312;7.378;2023-05-10T04:00:36;25.63;;;16.73;;
5871;SDS011;2962;51.312;7.378;2023-05-10T04:03:01;54.00;;;17.87;;
5871;SDS011;2962;51.312;7.378;2023-05-10T04:05:27;36.83;;;18.07;;
5871;SDS011;2962;51.312;7.378;2023-05-10T04:07:52;112.50;;;21.30;;
5871;SDS011;2962;51.312;7.378;2023-05-10T04:10:17;30.30;;;15.53;;
5871;SDS011;2962;51.312;7.378;2023-05-10T04:12:43;79.03;;;19.07;;
5871;SDS011;2962;51.312;7.378;2023-05-10T04:15:08;90.43;;;18.80;;
5871;SDS011;2962;51.312;7.378;2023-05-10T04:17:34;45.30;;;18.93;;
5871;SDS011;2962;51.312;7.378;2023-05-10T04:19:59;254.47;;;24.97;;
5871;SDS011;2962;51.312;7.378;2023-05-10T04:22:24;126.33;;;23.23;;
5871;SDS011;2962;51.312;7.378;2023-05-10T04:24:49;31.27;;;20.27;;
5871;SDS011;2962;51.312;7.378;2023-05-10T04:27:15;42.00;;;21.87;;
5871;SDS011;2962;51.312;7.378;2023-05-10T04:29:40;42.37;;;21.53;;
5871;SDS011;2962;51.312;7.378;2023-05-10T04:32:06;32.37;;;18.10;;
5871;SDS011;2962;51.312;7.378;2023-05-10T04:34:31;28.67;;;17.23;;
5871;SDS011;2962;51.312;7.378;2023-05-10T04:36:59;29.43;;;17.43;;
5871;SDS011;2962;51.312;7.378;2023-05-10T04:39:24;36.60;;;18.97;;
5871;SDS011;2962;51.312;7.378;2023-05-10T04:41:49;35.67;;;16.60;;
5871;SDS011;2962;51.312;7.378;2023-05-10T04:44:14;29.60;;;17.57;;
5871;SDS011;2962;51.312;7.378;2023-05-10T04:46:40;45.87;;;17.97;;
5871;SDS011;2962;51.312;7.378;2023-05-10T04:49:05;42.30;;;18.97;;
5871;SDS011;2962;51.312;7.378;2023-05-10T04:51:30;89.23;;;21.33;;
5871;SDS011;2962;51.312;7.378;2023-05-10T04:53:56;107.10;;;21.37;;
5871;SDS011;2962;51.312;7.378;2023-05-10T04:56:22;267.00;;;26.50;;
5871;SDS011;2962;51.312;7.378;2023-05-10T04:58:47;208.20;;;24.90;;
5871;SDS011;2962;51.312;7.378;2023-05-10T05:01:12;229.57;;;26.37;;
5871;SDS011;2962;51.312;7.378;2023-05-10T05:03:38;240.40;;;26.33;;
5871;SDS011;2962;51.312;7.378;2023-05-10T05:06:03;108.27;;;22.53;;
5871;SDS011;2962;51.312;7.378;2023-05-10T05:08:29;47.73;;;21.67;;
5871;SDS011;2962;51.312;7.378;2023-05-10T05:10:54;274.97;;;27.63;;
5871;SDS011;2962;51.312;7.378;2023-05-10T05:13:19;394.57;;;31.30;;
5871;SDS011;2962;51.312;7.378;2023-05-10T05:15:45;701.03;;;43.57;;
5871;SDS011;2962;51.312;7.378;2023-05-10T05:18:10;281.27;;;27.90;;
5871;SDS011;2962;51.312;7.378;2023-05-10T05:20:36;574.07;;;36.30;;
5871;SDS011;2962;51.312;7.378;2023-05-10T05:23:01;104.67;;;23.63;;
5871;SDS011;2962;51.312;7.378;2023-05-10T05:25:27;232.33;;;25.80;;
5871;SDS011;2962;51.312;7.378;2023-05-10T05:27:52;153.87;;;22.83;;
5871;SDS011;2962;51.312;7.378;2023-05-10T05:30:17;73.87;;;23.70;;
5871;SDS011;2962;51.312;7.378;2023-05-10T05:32:43;47.47;;;22.40;;
5871;SDS011;2962;51.312;7.378;2023-05-10T05:35:08;61.23;;;24.33;;
5871;SDS011;2962;51.312;7.378;2023-05-10T05:37:33;54.60;;;23.40;;
5871;SDS011;2962;51.312;7.378;2023-05-10T05:40:00;75.77;;;26.90;;
5871;SDS011;2962;51.312;7.378;2023-05-10T05:42:26;51.47;;;23.57;;
5871;SDS011;2962;51.312;7.378;2023-05-10T05:44:52;62.53;;;26.27;;
5871;SDS011;2962;51.312;7.378;2023-05-10T05:47:17;63.47;;;27.17;;
5871;SDS011;2962;51.312;7.378;2023-05-10T05:49:42;72.07;;;26.50;;
5871;SDS011;2962;51.312;7.378;2023-05-10T05:52:10;70.17;;;27.10;;
5871;SDS011;2962;51.312;7.378;2023-05-10T05:54:36;87.27;;;25.93;;
5871;SDS011;2962;51.312;7.378;2023-05-10T05:57:01;66.70;;;26.80;;
5871;SDS011;2962;51.312;7.378;2023-05-10T05:59:26;64.10;;;27.33;;
5871;SDS011;2962;51.312;7.378;2023-05-10T06:01:52;72.47;;;26.70;;
5871;SDS011;2962;51.312;7.378;2023-05-10T06:04:18;60.73;;;26.40;;
5871;SDS011;2962;51.312;7.378;2023-05-10T06:06:43;74.37;;;29.03;;
5871;SDS011;2962;51.312;7.378;2023-05-10T06:09:09;70.27;;;27.53;;
5871;SDS011;2962;51.312;7.378;2023-05-10T06:11:35;72.70;;;27.80;;
5871;SDS011;2962;51.312;7.378;2023-05-10T06:14:01;61.33;;;27.20;;
5871;SDS011;2962;51.312;7.378;2023-05-10T06:16:26;72.57;;;27.43;;
5871;SDS011;2962;51.312;7.378;2023-05-10T06:18:52;55.47;;;25.60;;
5871;SDS011;2962;51.312;7.378;2023-05-10T06:21:18;66.77;;;27.73;;
5871;SDS011;2962;51.312;7.378;2023-05-10T06:23:43;72.80;;;25.97;;
5871;SDS011;2962;51.312;7.378;2023-05-10T06:26:09;58.50;;;27.47;;
5871;SDS011;2962;51.312;7.378;2023-05-10T06:28:34;67.13;;;25.87;;
5871;SDS011;2962;51.312;7.378;2023-05-10T06:31:00;59.67;;;26.17;;
5871;SDS011;2962;51.312;7.378;2023-05-10T06:33:25;54.33;;;24.50;;
5871;SDS011;2962;51.312;7.378;2023-05-10T06:35:51;46.27;;;24.53;;
5871;SDS011;2962;51.312;7.378;2023-05-10T06:38:16;52.40;;;23.80;;
5871;SDS011;2962;51.312;7.378;2023-05-10T06:40:42;43.57;;;23.90;;
5871;SDS011;2962;51.312;7.378;2023-05-10T06:43:07;49.80;;;24.67;;
5871;SDS011;2962;51.312;7.378;2023-05-10T06:45:32;42.00;;;22.17;;
5871;SDS011;2962;51.312;7.378;2023-05-10T06:47:58;41.90;;;23.40;;
5871;SDS011;2962;51.312;7.378;2023-05-10T06:50:23;46.30;;;20.20;;
5871;SDS011;2962;51.312;7.378;2023-05-10T06:52:48;42.67;;;22.77;;
5871;SDS011;2962;51.312;7.378;2023-05-10T06:55:13;35.83;;;19.00;;
5871;SDS011;2962;51.312;7.378;2023-05-10T06:57:39;36.43;;;21.17;;
5871;SDS011;2962;51.312;7.378;2023-05-10T07:00:04;38.83;;;20.67;;
5871;SDS011;2962;51.312;7.378;2023-05-10T07:02:30;36.17;;;20.93;;
5871;SDS011;2962;51.312;7.378;2023-05-10T07:04:56;38.23;;;20.77;;
5871;SDS011;2962;51.312;7.378;2023-05-10T07:07:21;32.30;;;19.50;;
5871;SDS011;2962;51.312;7.378;2023-05-10T07:09:46;32.63;;;20.10;;
5871;SDS011;2962;51.312;7.378;2023-05-10T07:12:12;28.83;;;17.90;;
5871;SDS011;2962;51.312;7.378;2023-05-10T07:14:37;32.70;;;18.97;;
5871;SDS011;2962;51.312;7.378;2023-05-10T07:17:03;34.67;;;18.90;;
5871;SDS011;2962;51.312;7.378;2023-05-10T07:19:31;30.10;;;17.30;;
5871;SDS011;2962;51.312;7.378;2023-05-10T07:21:57;32.60;;;18.23;;
5871;SDS011;2962;51.312;7.378;2023-05-10T07:24:23;30.60;;;17.80;;
5871;SDS011;2962;51.312;7.378;2023-05-10T07:26:49;28.37;;;17.03;;
5871;SDS011;2962;51.312;7.378;2023-05-10T07:29:14;31.43;;;16.83;;
5871;SDS011;2962;51.312;7.378;2023-05-10T07:31:40;26.27;;;15.50;;
5871;SDS011;2962;51.312;7.378;2023-05-10T07:34:08;23.17;;;15.40;;
5871;SDS011;2962;51.312;7.378;2023-05-10T07:36:34;22.17;;;15.67;;
5871;SDS011;2962;51.312;7.378;2023-05-10T07:39:00;21.40;;;15.00;;
5871;SDS011;2962;51.312;7.378;2023-05-10T07:41:25;21.83;;;15.90;;
5871;SDS011;2962;51.312;7.378;2023-05-10T07:43:51;28.13;;;16.57;;
5871;SDS011;2962;51.312;7.378;2023-05-10T07:46:16;26.87;;;16.23;;
5871;SDS011;2962;51.312;7.378;2023-05-10T07:48:41;27.10;;;16.10;;
5871;SDS011;2962;51.312;7.378;2023-05-10T07:51:06;28.37;;;17.00;;
5871;SDS011;2962;51.312;7.378;2023-05-10T07:53:34;27.73;;;16.70;;
5871;SDS011;2962;51.312;7.378;2023-05-10T07:56:19;24.83;;;16.27;;
5871;SDS011;2962;51.312;7.378;2023-05-10T07:58:46;28.57;;;17.60;;
5871;SDS011;2962;51.312;7.378;2023-05-10T08:01:12;67.27;;;23.47;;
5871;SDS011;2962;51.312;7.378;2023-05-10T08:03:37;32.67;;;18.60;;
5871;SDS011;2962;51.312;7.378;2023-05-10T08:06:02;27.80;;;16.43;;
5871;SDS011;2962;51.312;7.378;2023-05-10T08:08:28;31.77;;;18.33;;
5871;SDS011;2962;51.312;7.378;2023-05-10T08:10:53;35.20;;;19.43;;
5871;SDS011;2962;51.312;7.378;2023-05-10T08:13:19;86.63;;;28.77;;
5871;SDS011;2962;51.312;7.378;2023-05-10T08:15:44;49.30;;;21.93;;
5871;SDS011;2962;51.312;7.378;2023-05-10T08:18:09;33.97;;;20.20;;
5871;SDS011;2962;51.312;7.378;2023-05-10T08:20:35;33.10;;;19.30;;
5871;SDS011;2962;51.312;7.378;2023-05-10T08:23:03;34.37;;;19.60;;
5871;SDS011;2962;51.312;7.378;2023-05-10T08:25:28;35.87;;;20.80;;
5871;SDS011;2962;51.312;7.378;2023-05-10T08:27:54;27.17;;;17.90;;
5871;SDS011;2962;51.312;7.378;2023-05-10T08:30:19;37.53;;;20.13;;
5871;SDS011;2962;51.312;7.378;2023-05-10T08:32:45;27.97;;;17.57;;
5871;SDS011;2962;51.312;7.378;2023-05-10T08:35:10;32.50;;;18.50;;
5871;SDS011;2962;51.312;7.378;2023-05-10T08:37:35;30.20;;;18.67;;
5871;SDS011;2962;51.312;7.378;2023-05-10T08:40:01;28.33;;;18.33;;
5871;SDS011;2962;51.312;7.378;2023-05-10T08:42:27;25.07;;;16.00;;
5871;SDS011;2962;51.312;7.378;2023-05-10T08:44:55;23.70;;;17.50;;
5871;SDS011;2962;51.312;7.378;2023-05-10T08:47:22;21.90;;;15.40;;
5871;SDS011;2962;51.312;7.378;2023-05-10T08:49:47;21.20;;;14.70;;
5871;SDS011;2962;51.312;7.378;2023-05-10T08:52:16;17.40;;;13.83;;
5871;SDS011;2962;51.312;7.378;2023-05-10T08:54:42;19.33;;;12.70;;
5871;SDS011;2962;51.312;7.378;2023-05-10T08:57:08;18.27;;;11.30;;
5871;SDS011;2962;51.312;7.378;2023-05-10T08:59:35;15.30;;;12.67;;
5871;SDS011;2962;51.312;7.378;2023-05-10T09:02:00;12.60;;;10.23;;
5871;SDS011;2962;51.312;7.378;2023-05-10T09:04:27;16.80;;;10.73;;
5871;SDS011;2962;51.312;7.378;2023-05-10T09:06:54;14.00;;;11.73;;
5871;SDS011;2962;51.312;7.378;2023-05-10T09:09:19;12.43;;;9.63;;
5871;SDS011;2962;51.312;7.378;2023-05-10T09:11:46;11.77;;;10.27;;
5871;SDS011;2962;51.312;7.378;2023-05-10T09:14:12;11.60;;;10.50;;
5871;SDS011;2962;51.312;7.378;2023-05-10T09:16:38;10.77;;;9.27;;
5871;SDS011;2962;51.312;7.378;2023-05-10T09:19:03;10.53;;;9.57;;
5871;SDS011;2962;51.312;7.378;2023-05-10T09:21:28;10.60;;;9.57;;
5871;SDS011;2962;51.312;7.378;2023-05-10T09:23:55;10.10;;;8.40;;
5871;SDS011;2962;51.312;7.378;2023-05-10T09:26:23;14.20;;;9.33;;
5871;SDS011;2962;51.312;7.378;2023-05-10T09:28:52;10.33;;;9.30;;
5871;SDS011;2962;51.312;7.378;2023-05-10T09:31:22;14.20;;;7.87;;
5871;SDS011;2962;51.312;7.378;2023-05-10T09:33:48;13.77;;;9.47;;
5871;SDS011;2962;51.312;7.378;2023-05-10T09:36:14;12.83;;;9.20;;
5871;SDS011;2962;51.312;7.378;2023-05-10T09:38:47;12.40;;;9.57;;
5871;SDS011;2962;51.312;7.378;2023-05-10T09:43:43;9.27;;;8.37;;
5871;SDS011;2962;51.312;7.378;2023-05-10T09:46:08;15.43;;;9.40;;
5871;SDS011;2962;51.312;7.378;2023-05-10T09:48:39;13.90;;;10.63;;
5871;SDS011;2962;51.312;7.378;2023-05-10T09:51:08;15.77;;;10.83;;
5871;SDS011;2962;51.312;7.378;2023-05-10T09:53:33;21.70;;;9.80;;
5871;SDS011;2962;51.312;7.378;2023-05-10T09:55:58;10.33;;;7.63;;
5871;SDS011;2962;51.312;7.378;2023-05-10T09:58:23;17.90;;;9.10;;
5871;SDS011;2962;51.312;7.378;2023-05-10T10:00:49;9.57;;;8.20;;
5871;SDS011;2962;51.312;7.378;2023-05-10T10:03:18;14.57;;;9.17;;
5871;SDS011;2962;51.312;7.378;2023-05-10T10:05:45;18.70;;;10.47;;
5871;SDS011;2962;51.312;7.378;2023-05-10T10:08:12;21.97;;;13.60;;
5871;SDS011;2962;51.312;7.378;2023-05-10T10:10:38;20.23;;;12.43;;
5871;SDS011;2962;51.312;7.378;2023-05-10T10:13:09;31.90;;;16.03;;
5871;SDS011;2962;51.312;7.378;2023-05-10T10:15:35;21.67;;;14.50;;
5871;SDS011;2962;51.312;7.378;2023-05-10T10:18:00;24.50;;;13.30;;
5871;SDS011;2962;51.312;7.378;2023-05-10T10:20:26;24.00;;;15.60;;
5871;SDS011;2962;51.312;7.378;2023-05-10T10:22:52;23.03;;;15.40;;
5871;SDS011;2962;51.312;7.378;2023-05-10T10:25:18;20.33;;;13.03;;
5871;SDS011;2962;51.312;7.378;2023-05-10T10:27:49;20.43;;;13.60;;
5871;SDS011;2962;51.312;7.378;2023-05-10T10:30:40;19.70;;;13.30;;
5871;SDS011;2962;51.312;7.378;2023-05-10T10:36:09;14.67;;;10.90;;
5871;SDS011;2962;51.312;7.378;2023-05-10T10:38:57;16.00;;;10.60;;
5871;SDS011;2962;51.312;7.378;2023-05-10T10:41:38;22.07;;;13.60;;
5871;SDS011;2962;51.312;7.378;2023-05-10T10:50:02;32.93;;;16.53;;
5871;SDS011;2962;51.312;7.378;2023-05-10T10:52:32;29.40;;;15.37;;
5871;SDS011;2962;51.312;7.378;2023-05-10T10:55:06;35.63;;;19.20;;
5871;SDS011;2962;51.312;7.378;2023-05-10T11:00:18;41.10;;;20.13;;
5871;SDS011;2962;51.312;7.378;2023-05-10T11:02:48;39.47;;;21.10;;
5871;SDS011;2962;51.312;7.378;2023-05-10T11:07:54;41.67;;;21.60;;
5871;SDS011;2962;51.312;7.378;2023-05-10T11:10:21;28.60;;;17.03;;
5871;SDS011;2962;51.312;7.378;2023-05-10T11:13:00;37.33;;;20.07;;
5871;SDS011;2962;51.312;7.378;2023-05-10T11:15:39;29.53;;;19.53;;
5871;SDS011;2962;51.312;7.378;2023-05-10T11:21:04;25.77;;;15.83;;
5871;SDS011;2962;51.312;7.378;2023-05-10T11:23:47;22.50;;;13.93;;
5871;SDS011;2962;51.312;7.378;2023-05-10T11:26:17;31.40;;;15.90;;
5871;SDS011;2962;51.312;7.378;2023-05-10T11:28:44;17.27;;;11.23;;
5871;SDS011;2962;51.312;7.378;2023-05-10T11:31:10;22.77;;;13.90;;
5871;SDS011;2962;51.312;7.378;2023-05-10T11:33:45;16.47;;;11.67;;
5871;SDS011;2962;51.312;7.378;2023-05-10T11:36:13;17.23;;;13.30;;
5871;SDS011;2962;51.312;7.378;2023-05-10T11:38:40;25.40;;;13.60;;
5871;SDS011;2962;51.312;7.378;2023-05-10T11:41:05;18.90;;;14.97;;
5871;SDS011;2962;51.312;7.378;2023-05-10T11:43:33;23.83;;;13.87;;
5871;SDS011;2962;51.312;7.378;2023-05-10T11:45:58;22.37;;;13.87;;
5871;SDS011;2962;51.312;7.378;2023-05-10T11:48:24;17.93;;;12.33;;
5871;SDS011;2962;51.312;7.378;2023-05-10T11:50:49;19.27;;;12.97;;
5871;SDS011;2962;51.312;7.378;2023-05-10T11:53:15;21.73;;;13.50;;
5871;SDS011;2962;51.312;7.378;2023-05-10T11:55:40;19.00;;;12.37;;
5871;SDS011;2962;51.312;7.378;2023-05-10T11:58:06;15.67;;;12.10;;
5871;SDS011;2962;51.312;7.378;2023-05-10T12:00:31;20.57;;;13.60;;
5871;SDS011;2962;51.312;7.378;2023-05-10T12:02:57;19.43;;;13.40;;
5871;SDS011;2962;51.312;7.378;2023-05-10T12:05:22;20.20;;;13.43;;
5871;SDS011;2962;51.312;7.378;2023-05-10T12:07:48;18.20;;;12.37;;
5871;SDS011;2962;51.312;7.378;2023-05-10T12:10:14;20.40;;;12.87;;
5871;SDS011;2962;51.312;7.378;2023-05-10T12:12:43;17.87;;;12.60;;
5871;SDS011;2962;51.312;7.378;2023-05-10T12:15:10;13.33;;;10.93;;
5871;SDS011;2962;51.312;7.378;2023-05-10T12:17:37;15.53;;;10.80;;
5871;SDS011;2962;51.312;7.378;2023-05-10T12:20:17;16.53;;;11.57;;
5871;SDS011;2962;51.312;7.378;2023-05-10T12:22:45;18.17;;;10.77;;
5871;SDS011;2962;51.312;7.378;2023-05-10T12:25:12;12.10;;;9.67;;
5871;SDS011;2962;51.312;7.378;2023-05-10T12:27:37;9.90;;;8.70;;
5871;SDS011;2962;51.312;7.378;2023-05-10T12:30:03;12.13;;;8.40;;
5871;SDS011;2962;51.312;7.378;2023-05-10T12:32:41;10.07;;;9.00;;
5871;SDS011;2962;51.312;7.378;2023-05-10T12:35:07;9.53;;;8.50;;
5871;SDS011;2962;51.312;7.378;2023-05-10T12:37:33;12.67;;;9.30;;
5871;SDS011;2962;51.312;7.378;2023-05-10T12:40:04;9.43;;;8.50;;
5871;SDS011;2962;51.312;7.378;2023-05-10T12:42:30;11.77;;;9.00;;
5871;SDS011;2962;51.312;7.378;2023-05-10T12:44:56;12.10;;;9.77;;
5871;SDS011;2962;51.312;7.378;2023-05-10T12:47:22;10.93;;;9.73;;
5871;SDS011;2962;51.312;7.378;2023-05-10T12:49:47;13.23;;;9.00;;
5871;SDS011;2962;51.312;7.378;2023-05-10T12:52:12;10.20;;;9.20;;
5871;SDS011;2962;51.312;7.378;2023-05-10T12:54:38;10.40;;;9.30;;
5871;SDS011;2962;51.312;7.378;2023-05-10T12:57:03;13.10;;;11.13;;
5871;SDS011;2962;51.312;7.378;2023-05-10T12:59:28;19.33;;;10.13;;
5871;SDS011;2962;51.312;7.378;2023-05-10T13:01:54;14.60;;;11.70;;
5871;SDS011;2962;51.312;7.378;2023-05-10T13:04:19;15.23;;;12.90;;
5871;SDS011;2962;51.312;7.378;2023-05-10T13:06:44;16.97;;;12.63;;
5871;SDS011;2962;51.312;7.378;2023-05-10T13:09:09;19.20;;;12.67;;
5871;SDS011;2962;51.312;7.378;2023-05-10T13:11:35;24.40;;;12.03;;
5871;SDS011;2962;51.312;7.378;2023-05-10T13:14:01;18.83;;;14.17;;
5871;SDS011;2962;51.312;7.378;2023-05-10T13:16:28;22.23;;;14.20;;
5871;SDS011;2962;51.312;7.378;2023-05-10T13:18:53;19.07;;;13.27;;
5871;SDS011;2962;51.312;7.378;2023-05-10T13:21:18;20.50;;;13.93;;
5871;SDS011;2962;51.312;7.378;2023-05-10T13:23:44;20.50;;;14.53;;
5871;SDS011;2962;51.312;7.378;2023-05-10T13:26:09;19.27;;;14.83;;
5871;SDS011;2962;51.312;7.378;2023-05-10T13:28:34;20.07;;;14.87;;
5871;SDS011;2962;51.312;7.378;2023-05-10T13:31:00;17.90;;;13.33;;
5871;SDS011;2962;51.312;7.378;2023-05-10T13:33:25;17.70;;;13.00;;
5871;SDS011;2962;51.312;7.378;2023-05-10T13:35:50;20.10;;;13.50;;
5871;SDS011;2962;51.312;7.378;2023-05-10T13:38:16;20.63;;;13.60;;
5871;SDS011;2962;51.312;7.378;2023-05-10T13:40:41;19.00;;;13.53;;
5871;SDS011;2962;51.312;7.378;2023-05-10T13:43:06;16.70;;;13.40;;
5871;SDS011;2962;51.312;7.378;2023-05-10T13:45:31;20.33;;;13.30;;
5871;SDS011;2962;51.312;7.378;2023-05-10T13:47:57;17.80;;;13.00;;
5871;SDS011;2962;51.312;7.378;2023-05-10T13:50:22;16.70;;;12.53;;
5871;SDS011;2962;51.312;7.378;2023-05-10T13:52:48;14.13;;;11.63;;
5871;SDS011;2962;51.312;7.378;2023-05-10T13:55:13;13.93;;;12.53;;
5871;SDS011;2962;51.312;7.378;2023-05-10T13:57:38;15.23;;;10.80;;
5871;SDS011;2962;51.312;7.378;2023-05-10T14:00:04;17.80;;;12.50;;
5871;SDS011;2962;51.312;7.378;2023-05-10T14:02:30;14.57;;;11.03;;
5871;SDS011;2962;51.312;7.378;2023-05-10T14:04:55;15.97;;;12.23;;
5871;SDS011;2962;51.312;7.378;2023-05-10T14:07:20;14.57;;;11.00;;
5871;SDS011;2962;51.312;7.378;2023-05-10T14:09:46;14.33;;;11.27;;
5871;SDS011;2962;51.312;7.378;2023-05-10T14:12:12;12.77;;;11.30;;
5871;SDS011;2962;51.312;7.378;2023-05-10T14:14:37;16.03;;;13.30;;
5871;SDS011;2962;51.312;7.378;2023-05-10T14:17:02;16.13;;;11.03;;
5871;SDS011;2962;51.312;7.378;2023-05-10T14:19:27;14.10;;;11.77;;
5871;SDS011;2962;51.312;7.378;2023-05-10T14:21:55;12.50;;;10.53;;
5871;SDS011;2962;51.312;7.378;2023-05-10T14:24:20;12.67;;;11.37;;
5871;SDS011;2962;51.312;7.378;2023-05-10T14:26:46;12.50;;;11.03;;
5871;SDS011;2962;51.312;7.378;2023-05-10T14:29:11;16.97;;;12.00;;
5871;SDS011;2962;51.312;7.378;2023-05-10T14:31:36;17.97;;;11.00;;
5871;SDS011;2962;51.312;7.378;2023-05-10T14:34:02;17.33;;;12.63;;
5871;SDS011;2962;51.312;7.378;2023-05-10T14:36:27;13.43;;;11.50;;
5871;SDS011;2962;51.312;7.378;2023-05-10T14:38:54;13.40;;;11.53;;
5871;SDS011;2962;51.312;7.378;2023-05-10T14:41:19;13.23;;;11.50;;
5871;SDS011;2962;51.312;7.378;2023-05-10T14:43:44;12.27;;;11.07;;
5871;SDS011;2962;51.312;7.378;2023-05-10T14:46:10;16.10;;;12.90;;
5871;SDS011;2962;51.312;7.378;2023-05-10T14:48:35;14.30;;;11.20;;
5871;SDS011;2962;51.312;7.378;2023-05-10T14:51:01;15.97;;;11.43;;
5871;SDS011;2962;51.312;7.378;2023-05-10T14:53:26;17.13;;;12.10;;
5871;SDS011;2962;51.312;7.378;2023-05-10T14:55:52;16.47;;;12.10;;
5871;SDS011;2962;51.312;7.378;2023-05-10T14:58:17;11.80;;;10.40;;
5871;SDS011;2962;51.312;7.378;2023-05-10T15:00:43;10.93;;;9.13;;
5871;SDS011;2962;51.312;7.378;2023-05-10T15:03:09;11.60;;;10.40;;
5871;SDS011;2962;51.312;7.378;2023-05-10T15:05:34;9.77;;;8.80;;
5871;SDS011;2962;51.312;7.378;2023-05-10T15:08:02;11.37;;;10.27;;
5871;SDS011;2962;51.312;7.378;2023-05-10T15:10:27;10.60;;;9.50;;
5871;SDS011;2962;51.312;7.378;2023-05-10T15:12:52;10.33;;;9.10;;
5871;SDS011;2962;51.312;7.378;2023-05-10T15:15:18;13.57;;;9.80;;
5871;SDS011;2962;51.312;7.378;2023-05-10T15:17:43;12.10;;;10.80;;
5871;SDS011;2962;51.312;7.378;2023-05-10T15:20:08;11.83;;;10.10;;
5871;SDS011;2962;51.312;7.378;2023-05-10T15:22:35;10.00;;;9.20;;